Terminal Aerodrome Forecast
Issued by NWS

Home | Current Version | Previous Version | Text Only | Print | Product List | Glossary On
Versions: 1 2 3 4 5 6 7 8 9 10 11 12 13 14 15 16 17 18
863
FTUS42 KFFC 220341 AAA
TAFRYY
TAF AMD
KRYY 220341Z 2204/2224 00000KT P6SM FEW025 BKN045
     FM220600 00000KT P6SM SCT015 BKN025
     FM220800 00000KT 5SM BR SCT008 OVC012
     FM221000 00000KT 2SM BR BKN006 OVC012
     FM221200 33008KT P6SM SCT012
     FM221400 34008KT P6SM SCT250=

USA.gov is the U.S. government's official web portal to all federal, state and local government web resources and services.